createdAt,value
2019-03-16T00:01:07.492Z,6.71
2019-03-16T00:03:37.993Z,6.68
2019-03-16T00:06:08.429Z,6.68
2019-03-16T00:08:39.215Z,6.73
2019-03-16T00:11:09.953Z,6.72
2019-03-16T00:13:40.704Z,6.71
2019-03-16T00:16:11.160Z,6.69
2019-03-16T00:18:42.017Z,6.75
2019-03-16T00:21:12.506Z,6.70
2019-03-16T00:23:43.268Z,6.68
2019-03-16T00:26:13.697Z,6.65
2019-03-16T00:28:44.147Z,6.63
2019-03-16T00:31:14.929Z,6.64
2019-03-16T00:33:45.403Z,6.63
2019-03-16T00:36:15.835Z,6.64
2019-03-16T00:38:46.259Z,6.65
2019-03-16T00:41:16.720Z,6.65
2019-03-16T00:43:47.560Z,6.69
2019-03-16T00:46:18.015Z,6.68
2019-03-16T00:48:48.444Z,6.68
2019-03-16T00:51:18.929Z,6.65
2019-03-16T00:56:16.648Z,6.69
2019-03-16T00:58:47.120Z,6.64
2019-03-16T01:01:17.577Z,6.67
2019-03-16T01:03:48.004Z,6.69
2019-03-16T01:06:18.460Z,6.70
2019-03-16T01:08:48.892Z,6.69
2019-03-16T01:11:19.382Z,6.65
2019-03-16T01:13:50.258Z,6.62
2019-03-16T01:16:20.683Z,6.59
2019-03-16T01:18:51.458Z,6.56
2019-03-16T01:21:21.888Z,6.57
2019-03-16T01:23:52.365Z,6.57
2019-03-16T01:26:22.966Z,6.58
2019-03-16T01:28:53.391Z,6.59
2019-03-16T01:31:23.864Z,6.58
2019-03-16T01:33:54.311Z,6.57
2019-03-16T01:36:24.732Z,6.55
2019-03-16T01:38:55.223Z,6.57
2019-03-16T01:41:26.025Z,6.56
2019-03-16T01:43:56.931Z,6.55
2019-03-16T01:46:27.383Z,6.55
2019-03-16T01:48:57.815Z,6.55
2019-03-16T01:51:28.289Z,6.49
2019-03-16T01:53:58.716Z,6.54
2019-03-16T01:56:29.152Z,6.50
2019-03-16T01:58:59.677Z,6.53
2019-03-16T02:01:30.313Z,6.52
2019-03-16T02:04:01.484Z,6.55
2019-03-16T02:06:32.589Z,6.59
2019-03-16T02:09:03.020Z,6.57
2019-03-16T02:11:33.473Z,6.59
2019-03-16T02:14:03.897Z,6.58
2019-03-16T02:16:34.370Z,6.60
2019-03-16T02:19:04.796Z,6.61
2019-03-16T02:21:35.295Z,6.59
2019-03-16T02:24:05.761Z,6.53
2019-03-16T02:26:36.187Z,6.55
2019-03-16T02:29:06.676Z,6.52
2019-03-16T02:31:37.105Z,6.58
2019-03-16T02:34:07.597Z,6.57
2019-03-16T02:36:41.120Z,6.57
2019-03-16T02:39:11.550Z,6.57
2019-03-16T02:41:42.393Z,6.52
2019-03-16T02:44:12.827Z,6.55
2019-03-16T02:46:43.255Z,6.56
2019-03-16T02:49:13.702Z,6.53
2019-03-16T02:51:44.152Z,6.50
2019-03-16T02:54:14.633Z,6.47
2019-03-16T02:56:45.381Z,6.47
2019-03-16T02:59:15.819Z,6.49
2019-03-16T03:01:46.276Z,6.47
2019-03-16T03:04:17.696Z,6.46
2019-03-16T03:06:48.172Z,6.43
2019-03-16T03:09:18.610Z,6.40
2019-03-16T03:11:49.028Z,6.42
2019-03-16T03:14:19.516Z,6.41
2019-03-16T03:16:50.025Z,6.40
2019-03-16T03:19:20.782Z,6.38
2019-03-16T03:21:51.235Z,6.45
2019-03-16T03:24:21.660Z,6.42
2019-03-16T03:26:52.367Z,6.45
2019-03-16T03:29:23.212Z,6.45
2019-03-16T03:31:53.649Z,6.42
2019-03-16T03:34:24.527Z,6.43
2019-03-16T03:36:54.961Z,6.43
2019-03-16T03:39:25.388Z,6.41
2019-03-16T03:41:56.405Z,6.41
2019-03-16T03:44:26.892Z,6.38
2019-03-16T03:46:57.313Z,6.41
2019-03-16T03:49:27.732Z,6.41
2019-03-16T03:51:58.186Z,6.38
2019-03-16T03:54:29.046Z,6.39
2019-03-16T03:56:59.517Z,6.43
2019-03-16T03:59:29.960Z,6.45
2019-03-16T04:02:00.396Z,6.41
2019-03-16T04:04:30.882Z,6.41
2019-03-16T04:07:01.597Z,6.40
2019-03-16T04:09:32.277Z,6.36
2019-03-16T04:12:03.185Z,6.37
2019-03-16T04:14:33.659Z,6.32
2019-03-16T04:17:04.810Z,6.33
2019-03-16T04:19:35.223Z,6.33
2019-03-16T04:22:06.132Z,6.29
2019-03-16T04:24:36.605Z,6.32
2019-03-16T04:27:15.880Z,6.32
2019-03-16T04:29:39.203Z,6.31
2019-03-16T04:32:10.033Z,6.35
2019-03-16T04:34:40.462Z,6.29
2019-03-16T04:37:11.269Z,6.28
2019-03-16T04:39:41.746Z,6.31
2019-03-16T04:42:12.181Z,6.28
2019-03-16T04:44:42.967Z,6.25
2019-03-16T04:47:13.425Z,6.24
2019-03-16T04:49:43.864Z,6.23
2019-03-16T04:52:14.578Z,6.26
2019-03-16T04:54:45.079Z,6.23
2019-03-16T04:57:15.521Z,6.19
2019-03-16T04:59:46.224Z,6.17
2019-03-16T05:02:16.700Z,6.15
2019-03-16T05:04:47.519Z,6.17
2019-03-16T05:07:18.297Z,6.20
2019-03-16T05:09:48.804Z,6.17
2019-03-16T05:12:19.228Z,6.23
2019-03-16T05:14:49.660Z,6.18
2019-03-16T05:17:20.133Z,6.18
2019-03-16T05:19:50.928Z,6.18
2019-03-16T05:22:21.363Z,6.18
2019-03-16T05:24:52.206Z,6.19
2019-03-16T05:27:22.936Z,6.16
2019-03-16T05:29:53.364Z,6.13
2019-03-16T05:32:24.304Z,6.19
2019-03-16T05:34:56.856Z,6.23
2019-03-16T05:37:27.517Z,6.26
2019-03-16T05:39:58.033Z,6.22
2019-03-16T05:42:28.787Z,6.24
2019-03-16T05:44:59.520Z,6.26
2019-03-16T05:47:30.030Z,6.25
2019-03-16T05:50:00.470Z,6.26
2019-03-16T05:52:30.852Z,6.25
2019-03-16T05:55:01.329Z,6.23
2019-03-16T05:57:31.759Z,6.25
2019-03-16T06:00:02.192Z,6.25
2019-03-16T06:02:33.048Z,6.24
2019-03-16T06:05:10.366Z,6.25
2019-03-16T06:07:35.701Z,6.25
2019-03-16T06:10:06.488Z,6.22
2019-03-16T06:12:36.918Z,6.27
2019-03-16T06:15:07.511Z,6.33
2019-03-16T06:17:38.010Z,6.33
2019-03-16T06:20:09.223Z,6.37
2019-03-16T06:22:40.064Z,6.40
2019-03-16T06:25:10.956Z,6.38
2019-03-16T06:27:41.759Z,6.35
2019-03-16T06:30:12.226Z,6.30
2019-03-16T06:32:43.264Z,6.21
2019-03-16T06:35:23.872Z,6.15
2019-03-16T06:37:45.838Z,6.09
2019-03-16T06:40:16.342Z,6.03
2019-03-16T06:42:46.787Z,5.95
2019-03-16T06:45:17.233Z,5.89
2019-03-16T06:47:48.047Z,5.83
2019-03-16T06:50:18.783Z,5.80
2019-03-16T06:52:49.217Z,5.81
2019-03-16T06:55:19.693Z,5.81
2019-03-16T06:57:50.123Z,5.76
2019-03-16T07:00:20.554Z,5.77
2019-03-16T07:02:51.342Z,5.66
2019-03-16T07:05:23.678Z,5.52
2019-03-16T07:07:53.909Z,5.45
2019-03-16T07:10:24.384Z,5.32
2019-03-16T07:12:54.819Z,5.25
2019-03-16T07:15:25.243Z,5.30
2019-03-16T07:17:55.993Z,5.26
2019-03-16T07:20:26.803Z,5.28
2019-03-16T07:22:57.300Z,5.32
2019-03-16T07:25:27.847Z,5.21
2019-03-16T07:27:58.359Z,5.21
2019-03-16T07:30:28.795Z,5.11
2019-03-16T07:32:59.252Z,5.04
2019-03-16T07:35:29.694Z,4.98
2019-03-16T07:38:00.365Z,4.97
2019-03-16T07:40:30.790Z,5.04
2019-03-16T07:43:01.599Z,4.95
2019-03-16T07:45:32.469Z,4.92
2019-03-16T07:48:02.899Z,4.82
2019-03-16T07:50:33.432Z,4.87
2019-03-16T07:53:03.900Z,4.85
2019-03-16T07:55:34.334Z,4.82
2019-03-16T07:58:04.768Z,4.77
2019-03-16T08:00:35.221Z,4.78
2019-03-16T08:03:05.691Z,4.80
2019-03-16T08:05:36.474Z,4.67
2019-03-16T08:08:06.991Z,4.62
2019-03-16T08:10:37.507Z,4.60
2019-03-16T08:13:08.272Z,4.59
2019-03-16T08:15:38.756Z,4.61
2019-03-16T08:18:09.572Z,4.61
2019-03-16T08:20:40.074Z,4.70
2019-03-16T08:23:10.819Z,4.72
2019-03-16T08:25:41.592Z,4.75
2019-03-16T08:28:12.476Z,4.74
2019-03-16T08:30:43.238Z,4.78
2019-03-16T08:33:13.675Z,4.78
2019-03-16T08:35:44.509Z,4.74
2019-03-16T08:38:14.983Z,4.76
2019-03-16T08:40:45.619Z,4.90
2019-03-16T08:43:16.055Z,4.97
2019-03-16T08:45:46.493Z,4.98
2019-03-16T08:48:22.695Z,5.14
2019-03-16T08:50:49.491Z,5.21
2019-03-16T08:53:22.752Z,5.29
2019-03-16T08:55:52.106Z,5.26
2019-03-16T08:58:23.472Z,5.30
2019-03-16T09:00:54.004Z,5.39
2019-03-16T09:03:25.171Z,5.42
2019-03-16T09:05:55.943Z,5.38
2019-03-16T09:08:26.376Z,5.41
2019-03-16T09:10:56.889Z,5.46
2019-03-16T09:13:27.696Z,5.40
2019-03-16T09:15:58.857Z,5.49
2019-03-16T09:18:30.288Z,5.53
2019-03-16T09:21:01.046Z,5.41
2019-03-16T09:23:31.794Z,5.36
2019-03-16T09:26:02.232Z,5.40
2019-03-16T09:28:34.047Z,5.32
2019-03-16T09:31:05.411Z,5.34
2019-03-16T09:33:35.848Z,5.38
2019-03-16T09:36:06.618Z,5.44
2019-03-16T09:38:37.053Z,5.43
2019-03-16T09:41:07.591Z,5.44
2019-03-16T09:43:38.012Z,5.48
2019-03-16T09:46:08.436Z,5.45
2019-03-16T09:48:38.931Z,5.57
2019-03-16T09:51:09.691Z,5.49
2019-03-16T09:53:40.119Z,5.48
2019-03-16T09:56:10.576Z,5.56
2019-03-16T09:58:41.048Z,5.59
2019-03-16T10:01:11.811Z,5.63
2019-03-16T10:03:42.243Z,5.72
2019-03-16T10:06:12.720Z,5.63
2019-03-16T10:08:43.167Z,5.81
2019-03-16T10:11:13.591Z,5.79
2019-03-16T10:13:44.074Z,5.77
2019-03-16T10:16:15.228Z,5.83
2019-03-16T10:18:45.664Z,5.87
2019-03-16T10:21:18.718Z,5.94
2019-03-16T10:23:48.557Z,5.94
2019-03-16T10:26:18.996Z,5.93
2019-03-16T10:28:49.815Z,5.92
2019-03-16T10:31:20.685Z,6.01
2019-03-16T10:33:51.136Z,5.96
2019-03-16T10:36:21.690Z,6.05
2019-03-16T10:38:52.439Z,6.14
2019-03-16T10:41:23.225Z,6.12
2019-03-16T10:43:54.753Z,6.09
2019-03-16T10:46:25.193Z,6.06
2019-03-16T10:48:56.057Z,6.16
2019-03-16T10:51:27.824Z,6.16
2019-03-16T10:53:58.371Z,6.24
2019-03-16T10:56:28.848Z,6.21
2019-03-16T10:58:59.278Z,6.23
2019-03-16T11:01:29.714Z,6.28
2019-03-16T11:04:00.209Z,6.36
2019-03-16T11:06:31.069Z,6.42
2019-03-16T11:09:01.509Z,6.35
2019-03-16T11:11:31.996Z,6.38
2019-03-16T11:14:02.440Z,6.39
2019-03-16T11:16:32.905Z,6.44
2019-03-16T11:19:03.865Z,6.44
2019-03-16T11:21:34.671Z,6.42
2019-03-16T11:24:05.511Z,6.52
2019-03-16T11:26:35.964Z,6.57
2019-03-16T11:29:09.310Z,6.57
2019-03-16T11:31:38.893Z,6.57
2019-03-16T11:34:09.620Z,6.69
2019-03-16T11:36:40.161Z,6.68
2019-03-16T11:39:10.654Z,6.71
2019-03-16T11:41:41.087Z,6.77
2019-03-16T11:44:12.226Z,6.77
2019-03-16T11:46:42.833Z,6.83
2019-03-16T11:49:13.281Z,6.93
2019-03-16T11:51:44.020Z,6.94
2019-03-16T11:54:14.458Z,6.93
2019-03-16T11:56:44.922Z,6.94
2019-03-16T11:59:21.442Z,6.95
2019-03-16T12:01:47.523Z,7.09
2019-03-16T12:04:17.964Z,7.24
2019-03-16T12:06:48.751Z,7.30
2019-03-16T12:09:19.245Z,7.56
2019-03-16T12:11:49.695Z,7.85
2019-03-16T12:14:20.947Z,8.07
2019-03-16T12:16:51.606Z,8.34
2019-03-16T12:19:22.124Z,8.44
2019-03-16T12:21:53.141Z,8.51
2019-03-16T12:24:23.643Z,8.63
2019-03-16T12:26:54.091Z,8.77
2019-03-16T12:29:33.468Z,8.87
2019-03-16T12:31:57.086Z,8.92
2019-03-16T12:34:27.533Z,8.99
2019-03-16T12:36:58.295Z,9.04
2019-03-16T12:39:29.147Z,9.17
2019-03-16T12:41:59.944Z,9.20
2019-03-16T12:44:30.722Z,9.29
2019-03-16T12:47:01.154Z,9.26
2019-03-16T12:49:31.935Z,9.28
2019-03-16T12:52:02.730Z,9.24
2019-03-16T12:54:33.463Z,9.26
2019-03-16T12:57:03.935Z,9.23
2019-03-16T12:59:46.147Z,9.25
2019-03-16T13:02:07.212Z,9.19
2019-03-16T13:04:38.295Z,9.26
2019-03-16T13:07:09.355Z,9.25
2019-03-16T13:09:42.420Z,9.37
2019-03-16T13:12:12.667Z,9.44
2019-03-16T13:14:43.195Z,9.44
2019-03-16T13:17:13.980Z,9.54
2019-03-16T13:19:44.481Z,9.54
2019-03-16T13:22:14.924Z,9.54
2019-03-16T13:24:45.355Z,9.54
2019-03-16T13:27:15.847Z,9.60
2019-03-16T13:29:58.167Z,9.66
2019-03-16T13:32:18.520Z,9.63
2019-03-16T13:34:49.355Z,9.66
2019-03-16T13:37:19.872Z,9.76
2019-03-16T13:39:50.619Z,9.86
2019-03-16T13:42:21.070Z,9.96
2019-03-16T13:44:51.556Z,10.14
2019-03-16T13:47:21.994Z,10.28
2019-03-16T13:49:52.756Z,10.22
2019-03-16T13:52:24.128Z,10.14
2019-03-16T13:54:54.875Z,10.10
2019-03-16T13:57:25.533Z,10.20
2019-03-16T13:59:55.963Z,10.20
2019-03-16T14:02:26.411Z,10.13
2019-03-16T14:04:57.323Z,10.22
2019-03-16T14:07:28.417Z,10.24
2019-03-16T14:10:00.712Z,10.19
2019-03-16T14:12:31.140Z,10.22
2019-03-16T14:15:01.601Z,10.20
2019-03-16T14:17:32.360Z,10.25
2019-03-16T14:20:03.545Z,10.28
2019-03-16T14:22:35.222Z,10.28
2019-03-16T14:25:07.404Z,10.19
2019-03-16T14:27:38.101Z,10.20
2019-03-16T14:30:10.433Z,10.22
2019-03-16T14:32:40.861Z,10.25
2019-03-16T14:35:11.636Z,10.26
2019-03-16T14:37:42.124Z,10.28
2019-03-16T14:40:13.061Z,10.25
2019-03-16T14:42:44.255Z,10.23
2019-03-16T14:45:16.558Z,10.22
2019-03-16T14:47:46.967Z,10.14
2019-03-16T14:50:18.414Z,10.21
2019-03-16T14:52:48.863Z,10.09
2019-03-16T14:55:19.450Z,10.13
2019-03-16T14:57:49.957Z,10.18
2019-03-16T15:00:20.692Z,10.16
2019-03-16T15:02:51.157Z,10.15
2019-03-16T15:05:22.293Z,10.11
2019-03-16T15:07:53.731Z,10.10
2019-03-16T15:10:24.249Z,10.05
2019-03-16T15:12:54.676Z,9.97
2019-03-16T15:15:25.508Z,10.03
2019-03-16T15:17:55.966Z,10.06
2019-03-16T15:20:26.418Z,10.06
2019-03-16T15:22:57.262Z,10.09
2019-03-16T15:25:27.709Z,10.12
2019-03-16T15:27:58.155Z,10.19
2019-03-16T15:30:28.628Z,10.19
2019-03-16T15:33:00.353Z,10.17
2019-03-16T15:35:31.061Z,10.21
2019-03-16T15:38:01.498Z,10.13
2019-03-16T15:40:33.060Z,10.16
2019-03-16T15:43:03.513Z,10.10
2019-03-16T15:45:33.941Z,10.10
2019-03-16T15:48:04.532Z,10.10
2019-03-16T15:50:35.277Z,10.11
2019-03-16T15:53:05.714Z,10.09
2019-03-16T15:55:36.198Z,10.10
2019-03-16T15:58:08.403Z,10.06
2019-03-16T16:00:39.126Z,9.97
2019-03-16T16:03:10.038Z,10.05
2019-03-16T16:05:40.925Z,10.05
2019-03-16T16:08:11.433Z,9.93
2019-03-16T16:10:44.217Z,9.94
2019-03-16T16:13:14.644Z,9.97
2019-03-16T16:15:45.123Z,9.94
2019-03-16T16:18:15.574Z,9.87
2019-03-16T16:20:46.072Z,9.82
2019-03-16T16:23:16.885Z,9.83
2019-03-16T16:25:47.321Z,9.87
2019-03-16T16:28:21.257Z,9.79
2019-03-16T16:30:51.797Z,9.82
2019-03-16T16:33:22.289Z,9.75
2019-03-16T16:35:53.792Z,9.78
2019-03-16T16:38:24.316Z,9.76
2019-03-16T16:40:55.041Z,9.80
2019-03-16T16:43:25.472Z,9.77
2019-03-16T16:45:55.919Z,9.79
2019-03-16T16:48:26.388Z,9.88
2019-03-16T16:50:57.667Z,9.95
2019-03-16T16:53:28.159Z,9.92
2019-03-16T16:55:58.623Z,10.05
2019-03-16T16:58:29.055Z,9.98
2019-03-16T17:00:59.509Z,9.95
2019-03-16T17:03:29.941Z,10.10
2019-03-16T17:06:00.757Z,10.05
2019-03-16T17:08:31.597Z,10.09
2019-03-16T17:11:02.324Z,10.11
2019-03-16T17:13:32.813Z,10.03
2019-03-16T17:16:03.278Z,10.09
2019-03-16T17:18:33.746Z,10.04
2019-03-16T17:21:04.599Z,10.15
2019-03-16T17:23:35.477Z,10.10
2019-03-16T17:26:07.024Z,10.16
2019-03-16T17:28:37.497Z,10.15
2019-03-16T17:31:11.480Z,10.09
2019-03-16T17:33:42.274Z,10.11
2019-03-16T17:36:12.753Z,10.10
2019-03-16T17:38:43.507Z,10.11
2019-03-16T17:41:14.033Z,10.14
2019-03-16T17:43:44.471Z,10.16
2019-03-16T17:46:14.918Z,10.21
2019-03-16T17:48:45.372Z,10.22
2019-03-16T17:51:16.475Z,10.16
2019-03-16T17:53:47.381Z,10.11
2019-03-16T17:56:17.844Z,10.11
2019-03-16T17:58:48.327Z,10.09
2019-03-16T18:01:18.780Z,10.13
2019-03-16T18:03:49.380Z,10.15
2019-03-16T18:06:19.865Z,10.18
2019-03-16T18:08:50.314Z,10.29
2019-03-16T18:11:20.740Z,10.27
2019-03-16T18:13:51.227Z,10.28
2019-03-16T18:16:21.997Z,10.28
2019-03-16T18:18:52.479Z,10.35
2019-03-16T18:21:23.396Z,10.27
2019-03-16T18:23:54.213Z,10.33
2019-03-16T18:26:24.692Z,10.33
2019-03-16T18:28:55.514Z,10.28
2019-03-16T18:31:26.055Z,10.32
2019-03-16T18:33:56.517Z,10.32
2019-03-16T18:36:26.958Z,10.26
2019-03-16T18:38:57.460Z,10.23
2019-03-16T18:41:27.897Z,10.36
2019-03-16T18:43:58.718Z,10.29
2019-03-16T18:46:29.894Z,10.27
2019-03-16T18:49:00.691Z,10.25
2019-03-16T18:51:31.497Z,10.35
2019-03-16T18:54:01.976Z,10.26
2019-03-16T18:56:32.765Z,10.33
2019-03-16T18:59:03.535Z,10.35
2019-03-16T19:01:34.010Z,10.28
2019-03-16T19:04:04.469Z,10.28
2019-03-16T19:06:35.181Z,10.32
2019-03-16T19:09:07.568Z,10.38
2019-03-16T19:11:38.041Z,10.29
2019-03-16T19:14:08.515Z,10.22
2019-03-16T19:16:39.277Z,10.18
2019-03-16T19:19:10.113Z,10.23
2019-03-16T19:21:41.201Z,10.23
2019-03-16T19:24:11.691Z,10.21
2019-03-16T19:26:42.412Z,10.26
2019-03-16T19:29:12.904Z,10.25
2019-03-16T19:31:44.236Z,10.24
2019-03-16T19:34:15.044Z,10.19
2019-03-16T19:36:45.884Z,10.18
2019-03-16T19:39:16.330Z,10.22
2019-03-16T19:41:46.812Z,10.22
2019-03-16T19:44:17.433Z,10.20
2019-03-16T19:46:47.916Z,10.21
2019-03-16T19:49:19.702Z,10.14
2019-03-16T19:51:50.630Z,10.24
2019-03-16T19:54:21.452Z,10.29
2019-03-16T19:56:51.961Z,10.29
2019-03-16T19:59:23.041Z,10.22
2019-03-16T20:01:53.470Z,10.18
2019-03-16T20:04:35.543Z,10.27
2019-03-16T20:06:57.186Z,10.25
2019-03-16T20:09:28.855Z,10.14
2019-03-16T20:11:59.304Z,10.15
2019-03-16T20:14:30.109Z,10.18
2019-03-16T20:17:00.948Z,10.11
2019-03-16T20:19:31.429Z,10.13
2019-03-16T20:22:02.252Z,10.15
2019-03-16T20:24:33.044Z,10.14
2019-03-16T20:27:06.682Z,10.20
2019-03-16T20:29:37.591Z,10.12
2019-03-16T20:32:08.053Z,10.10
2019-03-16T20:34:38.491Z,10.07
2019-03-16T20:37:09.357Z,10.04
2019-03-16T20:39:39.796Z,9.95
2019-03-16T20:42:10.279Z,10.06
2019-03-16T20:44:40.711Z,10.03
2019-03-16T20:47:11.141Z,10.06
2019-03-16T20:49:41.615Z,10.07
2019-03-16T20:52:12.639Z,10.03
2019-03-16T20:54:43.813Z,10.06
2019-03-16T20:57:14.315Z,10.01
2019-03-16T20:59:45.433Z,10.02
2019-03-16T21:02:15.931Z,10.14
2019-03-16T21:04:47.049Z,10.10
2019-03-16T21:07:17.533Z,10.05
2019-03-16T21:09:48.366Z,10.04
2019-03-16T21:12:20.423Z,10.00
2019-03-16T21:14:51.305Z,10.07
2019-03-16T21:17:22.161Z,10.04
2019-03-16T21:19:53.137Z,9.99
2019-03-16T21:22:34.921Z,9.98
2019-03-16T21:24:56.468Z,10.02
2019-03-16T21:27:28.726Z,10.01
2019-03-16T21:29:59.179Z,10.05
2019-03-16T21:32:30.420Z,10.05
2019-03-16T21:35:00.892Z,10.03
2019-03-16T21:37:31.341Z,10.02
2019-03-16T21:40:01.812Z,10.00
2019-03-16T21:42:32.276Z,10.04
2019-03-16T21:45:02.700Z,9.98
2019-03-16T21:47:33.611Z,10.05
2019-03-16T21:50:04.500Z,10.04
2019-03-16T21:52:34.929Z,10.06
2019-03-16T21:55:05.934Z,10.02
2019-03-16T21:57:36.372Z,10.01
2019-03-16T22:00:09.243Z,9.98
2019-03-16T22:02:39.685Z,9.93
2019-03-16T22:05:11.302Z,9.99
2019-03-16T22:07:41.799Z,10.02
2019-03-16T22:10:12.347Z,9.98
2019-03-16T22:12:43.159Z,9.93
2019-03-16T22:15:13.650Z,9.97
2019-03-16T22:17:44.391Z,9.97
2019-03-16T22:20:15.260Z,10.03
2019-03-16T22:22:45.695Z,9.98
2019-03-16T22:25:18.492Z,9.96
2019-03-16T22:27:51.600Z,9.95
2019-03-16T22:30:21.121Z,10.01
2019-03-16T22:32:51.582Z,9.94
2019-03-16T22:35:22.036Z,10.02
2019-03-16T22:37:52.732Z,9.97
2019-03-16T22:40:23.892Z,10.05
2019-03-16T22:42:54.330Z,10.02
2019-03-16T22:45:25.169Z,10.01
2019-03-16T22:47:55.593Z,10.01
2019-03-16T22:50:26.058Z,10.02
2019-03-16T22:52:56.565Z,9.96
2019-03-16T22:55:27.019Z,9.89
2019-03-16T22:57:57.457Z,9.95
2019-03-16T23:00:37.136Z,9.96
2019-03-16T23:03:06.740Z,9.85
2019-03-16T23:05:37.606Z,9.80
2019-03-16T23:08:08.059Z,9.90
2019-03-16T23:10:38.480Z,9.88
2019-03-16T23:13:09.289Z,9.84
2019-03-16T23:15:40.028Z,9.86
2019-03-16T23:18:10.460Z,9.82
2019-03-16T23:20:41.541Z,9.80
2019-03-16T23:23:12.008Z,9.77
2019-03-16T23:25:42.435Z,9.69
2019-03-16T23:28:12.946Z,9.63
2019-03-16T23:30:43.402Z,9.73
2019-03-16T23:33:13.884Z,9.62
2019-03-16T23:35:44.306Z,9.57
2019-03-16T23:38:14.732Z,9.52
2019-03-16T23:40:45.179Z,9.52
2019-03-16T23:43:15.983Z,9.49
2019-03-16T23:45:46.435Z,9.45
2019-03-16T23:48:17.963Z,9.36
2019-03-16T23:50:48.831Z,9.40
2019-03-16T23:53:19.251Z,9.41
2019-03-16T23:55:49.675Z,9.36
2019-03-16T23:58:20.148Z,9.34
